createdAt,value
2022-10-10T00:01:15.972Z,101608.44
2022-10-10T00:03:43.310Z,101599.59
2022-10-10T00:06:10.725Z,101597.84
2022-10-10T00:08:39.864Z,101604.00
2022-10-10T00:11:09.839Z,101596.94
2022-10-10T00:13:36.751Z,101589.81
2022-10-10T00:16:05.894Z,101596.88
2022-10-10T00:18:33.078Z,101599.50
2022-10-10T00:21:02.224Z,101596.84
2022-10-10T00:23:28.868Z,101598.50
2022-10-10T00:25:58.390Z,101594.97
2022-10-10T00:28:29.400Z,101599.34
2022-10-10T00:30:56.023Z,101586.03
2022-10-10T00:33:22.701Z,101595.78
2022-10-10T00:35:49.448Z,101592.25
2022-10-10T00:38:19.052Z,101590.47
2022-10-10T00:40:52.242Z,101585.16
2022-10-10T00:43:19.098Z,101583.38
2022-10-10T00:45:49.053Z,101575.50
2022-10-10T00:48:23.891Z,101577.28
2022-10-10T00:51:11.543Z,101577.28
2022-10-10T00:53:41.722Z,101579.00
2022-10-10T00:56:10.016Z,101576.41
2022-10-10T00:58:41.779Z,101570.22
2022-10-10T01:01:09.076Z,101570.22
2022-10-10T01:03:35.922Z,101571.97
2022-10-10T01:06:02.912Z,101571.06
2022-10-10T01:08:29.595Z,101569.28
2022-10-10T01:11:14.268Z,101570.16
2022-10-10T01:14:15.105Z,101571.06
2022-10-10T01:17:10.723Z,101571.06
2022-10-10T01:19:56.122Z,101573.72
2022-10-10T01:22:40.707Z,101574.59
2022-10-10T01:25:12.983Z,101571.13
2022-10-10T01:28:07.468Z,101571.13
2022-10-10T01:30:35.326Z,101571.97
2022-10-10T01:33:16.914Z,101574.66
2022-10-10T01:36:08.269Z,101586.09
2022-10-10T01:39:02.500Z,101580.84
2022-10-10T01:41:37.306Z,101587.13
2022-10-10T01:44:03.908Z,101577.44
2022-10-10T01:46:33.214Z,101580.19
2022-10-10T01:49:01.013Z,101573.22
2022-10-10T01:51:44.757Z,101577.69
2022-10-10T01:54:26.607Z,101583.97
2022-10-10T01:57:02.284Z,101584.97
2022-10-10T01:59:40.726Z,101582.41
2022-10-10T02:02:28.804Z,101583.38
2022-10-10T02:05:04.811Z,101579.84
2022-10-10T02:07:38.307Z,101585.19
2022-10-10T02:10:08.199Z,101579.03
2022-10-10T02:12:36.316Z,101569.31
2022-10-10T02:15:14.349Z,101571.09
2022-10-10T02:17:43.339Z,101575.47
2022-10-10T02:20:13.271Z,101569.31
2022-10-10T02:22:43.354Z,101577.25
2022-10-10T02:25:10.028Z,101569.31
2022-10-10T02:28:04.531Z,101578.22
2022-10-10T02:30:35.255Z,101580.00
2022-10-10T02:33:04.807Z,101587.06
2022-10-10T02:35:35.628Z,101576.53
2022-10-10T02:38:05.839Z,101583.69
2022-10-10T02:40:34.994Z,101581.94
2022-10-10T02:43:04.613Z,101586.41
2022-10-10T02:45:33.308Z,101576.78
2022-10-10T02:48:01.300Z,101586.56
2022-10-10T02:50:30.003Z,101577.84
2022-10-10T02:52:57.550Z,101577.91
2022-10-10T02:55:24.363Z,101577.06
2022-10-10T02:57:51.155Z,101570.03
2022-10-10T03:00:18.218Z,101563.00
2022-10-10T03:02:45.531Z,101573.63
2022-10-10T03:05:12.545Z,101563.06
2022-10-10T03:07:39.178Z,101575.44
2022-10-10T03:10:07.418Z,101571.06
2022-10-10T03:12:35.041Z,101567.53
2022-10-10T03:15:01.912Z,101571.94
2022-10-10T03:17:28.559Z,101564.97
2022-10-10T03:19:55.175Z,101559.63
2022-10-10T03:22:22.042Z,101557.84
2022-10-10T03:24:48.683Z,101551.75
2022-10-10T03:27:15.312Z,101559.66
2022-10-10T03:29:41.950Z,101559.72
2022-10-10T03:32:11.086Z,101559.75
2022-10-10T03:34:37.996Z,101561.53
2022-10-10T03:37:04.663Z,101557.19
2022-10-10T03:39:31.271Z,101563.38
2022-10-10T03:41:58.051Z,101557.22
2022-10-10T03:44:24.789Z,101553.72
2022-10-10T03:46:51.410Z,101556.34
2022-10-10T03:49:18.014Z,101550.25
2022-10-10T03:51:44.672Z,101549.38
2022-10-10T03:54:11.278Z,101550.25
2022-10-10T03:56:37.866Z,101552.97
2022-10-10T03:59:06.265Z,101556.47
2022-10-10T04:01:34.228Z,101553.00
2022-10-10T04:04:00.991Z,101553.00
2022-10-10T04:06:28.375Z,101548.63
2022-10-10T04:08:55.138Z,101542.44
2022-10-10T04:11:21.827Z,101538.91
2022-10-10T04:13:48.548Z,101536.28
2022-10-10T04:16:15.162Z,101533.63
2022-10-10T04:18:41.802Z,101544.19
2022-10-10T04:21:08.431Z,101544.19
2022-10-10T04:23:35.080Z,101544.16
2022-10-10T04:26:01.721Z,101537.09
2022-10-10T04:28:28.466Z,101536.19
2022-10-10T04:30:56.878Z,101542.34
2022-10-10T04:33:26.227Z,101542.34
2022-10-10T04:35:53.086Z,101540.56
2022-10-10T04:38:21.371Z,101530.91
2022-10-10T04:40:50.079Z,101538.84
2022-10-10T04:43:17.246Z,101525.63
2022-10-10T04:45:43.921Z,101528.22
2022-10-10T04:48:10.585Z,101529.09
2022-10-10T04:50:37.329Z,101523.81
2022-10-10T04:53:04.023Z,101524.69
2022-10-10T04:55:30.635Z,101520.31
2022-10-10T04:57:57.283Z,101528.19
2022-10-10T05:00:24.071Z,101521.16
2022-10-10T05:02:50.916Z,101525.59
2022-10-10T05:05:17.885Z,101530.91
2022-10-10T05:07:44.477Z,101521.22
2022-10-10T05:10:11.095Z,101518.59
2022-10-10T05:12:38.997Z,101510.72
2022-10-10T05:15:06.313Z,101509.81
2022-10-10T05:17:33.091Z,101511.53
2022-10-10T05:19:59.732Z,101511.50
2022-10-10T05:22:26.494Z,101515.00
2022-10-10T05:24:53.200Z,101505.31
2022-10-10T05:27:22.619Z,101501.72
2022-10-10T05:29:49.257Z,101496.44
2022-10-10T05:32:16.001Z,101504.38
2022-10-10T05:34:49.090Z,101499.91
2022-10-10T05:37:18.675Z,101500.78
2022-10-10T05:39:45.727Z,101503.38
2022-10-10T05:42:14.067Z,101510.44
2022-10-10T05:44:40.706Z,101510.41
2022-10-10T05:47:10.259Z,101515.69
2022-10-10T05:49:36.920Z,101514.78
2022-10-10T05:52:03.826Z,101509.47
2022-10-10T05:54:30.445Z,101503.28
2022-10-10T05:57:00.131Z,101509.44
2022-10-10T05:59:31.364Z,101507.69
2022-10-10T06:01:58.209Z,101502.38
2022-10-10T06:04:24.980Z,101505.84
2022-10-10T06:06:51.717Z,101499.59
2022-10-10T06:09:18.406Z,101498.69
2022-10-10T06:11:48.030Z,101503.09
2022-10-10T06:14:14.839Z,101511.88
2022-10-10T06:16:47.898Z,101504.78
2022-10-10T06:19:15.207Z,101493.25
2022-10-10T06:21:41.971Z,101498.44
2022-10-10T06:24:10.734Z,101495.75
2022-10-10T06:26:40.162Z,101501.00
2022-10-10T06:29:07.429Z,101500.84
2022-10-10T06:31:34.263Z,101502.53
2022-10-10T06:34:00.880Z,101500.72
2022-10-10T06:36:27.564Z,101505.91
2022-10-10T06:38:57.314Z,101497.94
2022-10-10T06:41:23.962Z,101505.81
2022-10-10T06:43:53.381Z,101505.75
2022-10-10T06:46:20.027Z,101493.34
2022-10-10T06:48:49.345Z,101495.03
2022-10-10T06:51:19.766Z,101494.97
2022-10-10T06:53:46.656Z,101486.16
2022-10-10T06:56:24.979Z,101494.00
2022-10-10T06:58:53.959Z,101496.59
2022-10-10T07:01:22.103Z,101494.72
2022-10-10T07:03:48.819Z,101490.22
2022-10-10T07:06:16.151Z,101496.31
2022-10-10T07:08:43.086Z,101498.91
2022-10-10T07:11:10.109Z,101494.44
2022-10-10T07:13:37.903Z,101489.03
2022-10-10T07:16:05.618Z,101496.00
2022-10-10T07:18:33.917Z,101498.53
2022-10-10T07:21:04.084Z,101492.22
2022-10-10T07:23:32.885Z,101499.13
2022-10-10T07:26:14.468Z,101498.19
2022-10-10T07:28:41.304Z,101489.22
2022-10-10T07:31:11.107Z,101485.56
2022-10-10T07:33:48.910Z,101483.66
2022-10-10T07:36:16.713Z,101492.34
2022-10-10T07:38:43.304Z,101490.50
2022-10-10T07:41:13.493Z,101482.44
2022-10-10T07:43:40.925Z,101482.28
2022-10-10T07:46:15.929Z,101481.28
2022-10-10T07:48:42.646Z,101481.97
2022-10-10T07:51:09.642Z,101481.84
2022-10-10T07:53:36.621Z,101484.34
2022-10-10T07:56:07.810Z,101475.44
2022-10-10T07:58:35.376Z,101475.31
2022-10-10T08:01:07.073Z,101475.22
2022-10-10T08:03:33.701Z,101477.75
2022-10-10T08:06:05.112Z,101472.28
2022-10-10T08:08:34.245Z,101468.56
2022-10-10T08:11:01.569Z,101473.69
2022-10-10T08:13:28.235Z,101466.41
2022-10-10T08:15:54.867Z,101466.25
2022-10-10T08:18:21.490Z,101458.94
2022-10-10T08:20:48.311Z,101451.63
2022-10-10T08:23:14.942Z,101455.88
2022-10-10T08:25:41.566Z,101450.38
2022-10-10T08:28:08.220Z,101447.47
2022-10-10T08:30:34.946Z,101451.63
2022-10-10T08:33:01.659Z,101447.78
2022-10-10T08:35:28.296Z,101439.63
2022-10-10T08:37:55.288Z,101435.03
2022-10-10T08:40:22.862Z,101435.72
2022-10-10T08:42:56.698Z,101434.63
2022-10-10T08:45:27.305Z,101430.00
2022-10-10T08:48:05.513Z,101432.47
2022-10-10T08:50:55.335Z,101426.13
2022-10-10T08:53:49.330Z,101427.72
2022-10-10T08:56:21.455Z,101427.38
2022-10-10T08:58:55.589Z,101419.16
2022-10-10T09:01:28.851Z,101409.19
2022-10-10T09:03:59.351Z,101419.56
2022-10-10T09:06:40.169Z,101414.06
2022-10-10T09:09:17.825Z,101403.09
2022-10-10T09:12:25.425Z,101417.00
2022-10-10T09:15:12.883Z,101407.78
2022-10-10T09:17:46.103Z,101411.88
2022-10-10T09:20:26.988Z,101410.53
2022-10-10T09:23:06.191Z,101406.47
2022-10-10T09:25:53.107Z,101402.38
2022-10-10T09:28:38.877Z,101401.13
2022-10-10T09:31:15.582Z,101399.88
2022-10-10T09:33:50.807Z,101402.19
2022-10-10T09:36:23.781Z,101391.41
2022-10-10T09:38:55.779Z,101395.88
2022-10-10T09:41:36.836Z,101397.75
2022-10-10T09:44:09.028Z,101394.25
2022-10-10T09:46:37.223Z,101391.47
2022-10-10T09:49:04.572Z,101392.91
2022-10-10T09:51:33.161Z,101383.81
2022-10-10T09:53:59.817Z,101380.91
2022-10-10T09:56:31.722Z,101380.69
2022-10-10T09:58:58.464Z,101365.41
2022-10-10T10:01:31.644Z,101365.94
2022-10-10T10:04:34.267Z,101369.00
2022-10-10T10:07:27.597Z,101353.56
2022-10-10T10:09:58.234Z,101347.88
2022-10-10T10:12:32.692Z,101351.97
2022-10-10T10:15:06.442Z,101350.75
2022-10-10T10:17:33.242Z,101344.00
2022-10-10T10:19:59.956Z,101357.72
2022-10-10T10:22:31.466Z,101352.13
2022-10-10T10:24:59.647Z,101336.03
2022-10-10T10:27:29.285Z,101346.44
2022-10-10T10:29:58.571Z,101335.50
2022-10-10T10:32:31.262Z,101322.06
2022-10-10T10:35:06.077Z,101339.06
2022-10-10T10:38:07.624Z,101325.59
2022-10-10T10:40:40.763Z,101319.25
2022-10-10T10:43:26.923Z,101318.97
2022-10-10T10:46:05.687Z,101313.28
2022-10-10T10:49:00.858Z,101309.47
2022-10-10T10:51:30.355Z,101311.78
2022-10-10T10:54:23.258Z,101304.34
2022-10-10T10:57:31.816Z,101291.56
2022-10-10T11:00:47.259Z,101295.72
2022-10-10T11:05:18.207Z,101281.22
2022-10-10T11:06:16.575Z,101291.69
2022-10-10T11:08:58.415Z,101274.78
2022-10-10T11:12:04.235Z,101275.88
2022-10-10T11:15:03.316Z,101272.34
2022-10-10T11:17:52.593Z,101267.88
2022-10-10T11:20:39.274Z,101257.03
2022-10-10T11:23:15.147Z,101245.38
2022-10-10T11:25:55.488Z,101240.03
2022-10-10T11:28:25.059Z,101246.38
2022-10-10T11:30:57.959Z,101241.94
2022-10-10T11:33:31.272Z,101238.22
2022-10-10T11:36:04.105Z,101234.78
2022-10-10T11:38:44.774Z,101234.69
2022-10-10T11:41:22.176Z,101228.50
2022-10-10T11:44:12.662Z,101228.72
2022-10-10T11:46:50.761Z,101233.34
2022-10-10T11:49:25.139Z,101224.63
2022-10-10T11:52:14.973Z,101223.34
2022-10-10T11:54:56.930Z,101209.44
2022-10-10T11:57:32.236Z,101216.75
2022-10-10T12:00:14.098Z,101207.25
2022-10-10T12:02:42.439Z,101203.84
2022-10-10T12:05:25.116Z,101200.53
2022-10-10T12:08:19.232Z,101192.59
2022-10-10T12:10:55.083Z,101179.44
2022-10-10T12:13:35.337Z,101192.03
2022-10-10T12:16:06.691Z,101184.16
2022-10-10T12:19:00.985Z,101174.63
2022-10-10T12:21:30.227Z,101165.16
2022-10-10T12:24:01.715Z,101175.94
2022-10-10T12:26:57.220Z,101175.09
2022-10-10T12:29:41.939Z,101173.38
2022-10-10T12:32:14.401Z,101168.03
2022-10-10T12:35:30.998Z,101160.22
2022-10-10T12:38:15.807Z,101155.00
2022-10-10T12:40:57.514Z,101155.97
2022-10-10T12:43:44.278Z,101137.41
2022-10-10T12:46:21.058Z,101141.97
2022-10-10T12:49:17.595Z,101138.50
2022-10-10T12:51:46.167Z,101132.44
2022-10-10T12:54:24.608Z,101117.44
2022-10-10T12:57:06.007Z,101124.53
2022-10-10T12:59:36.326Z,101121.19
2022-10-10T13:02:31.278Z,101120.53
2022-10-10T13:05:01.489Z,101116.34
2022-10-10T13:07:28.671Z,101107.66
2022-10-10T13:10:07.309Z,101122.94
2022-10-10T13:12:34.282Z,101110.69
2022-10-10T13:15:01.170Z,101120.63
2022-10-10T13:17:41.075Z,101104.84
2022-10-10T13:20:25.831Z,101089.94
2022-10-10T13:22:52.530Z,101097.25
2022-10-10T13:25:19.773Z,101088.44
2022-10-10T13:27:46.452Z,101078.72
2022-10-10T13:30:21.968Z,101080.66
2022-10-10T13:32:49.273Z,101076.28
2022-10-10T13:35:27.791Z,101071.09
2022-10-10T13:38:00.492Z,101069.41
2022-10-10T13:40:27.995Z,101070.41
2022-10-10T13:42:55.355Z,101060.78
2022-10-10T13:46:12.910Z,101052.78
2022-10-10T13:48:40.221Z,101047.50
2022-10-10T13:51:12.018Z,101048.50
2022-10-10T13:53:49.162Z,101037.81
2022-10-10T13:56:26.645Z,101047.72
2022-10-10T13:58:58.732Z,101038.91
2022-10-10T14:01:33.096Z,101027.38
2022-10-10T14:04:20.407Z,101027.47
2022-10-10T14:07:30.080Z,101027.38
2022-10-10T14:10:05.018Z,101023.78
2022-10-10T14:13:04.139Z,101007.72
2022-10-10T14:15:33.589Z,101008.44
2022-10-10T14:18:00.195Z,101014.66
2022-10-10T14:20:26.805Z,101010.13
2022-10-10T14:22:53.458Z,100996.78
2022-10-10T14:25:20.121Z,101004.78
2022-10-10T14:27:46.763Z,100991.59
2022-10-10T14:30:16.222Z,100995.34
2022-10-10T14:32:43.031Z,100991.88
2022-10-10T14:35:09.826Z,100991.97
2022-10-10T14:37:38.678Z,100988.56
2022-10-10T14:40:27.119Z,100986.81
2022-10-10T14:42:54.092Z,100985.34
2022-10-10T14:45:20.730Z,100990.81
2022-10-10T14:47:47.363Z,100988.38
2022-10-10T14:50:20.268Z,100971.66
2022-10-10T14:52:46.985Z,100981.59
2022-10-10T14:55:13.725Z,100966.56
2022-10-10T14:57:40.637Z,100975.56
2022-10-10T15:00:13.857Z,100968.59
2022-10-10T15:02:44.654Z,100955.41
2022-10-10T15:05:12.911Z,100962.72
2022-10-10T15:07:39.565Z,100959.19
2022-10-10T15:12:53.771Z,100958.47
2022-10-10T15:15:20.518Z,100955.94
2022-10-10T15:17:47.184Z,100956.00
2022-10-10T15:20:13.908Z,100946.34
2022-10-10T15:22:40.944Z,100939.44
2022-10-10T15:25:08.467Z,100938.63
2022-10-10T15:27:37.004Z,100929.91
2022-10-10T15:30:05.195Z,100925.56
2022-10-10T15:32:31.858Z,100930.13
2022-10-10T15:34:58.627Z,100924.94
2022-10-10T15:37:27.317Z,100921.44
2022-10-10T15:39:54.301Z,100926.91
2022-10-10T15:42:22.919Z,100933.16
2022-10-10T15:44:50.613Z,100923.47
2022-10-10T15:47:20.244Z,100923.59
2022-10-10T15:49:47.189Z,100917.47
2022-10-10T15:52:14.414Z,100923.84
2022-10-10T15:54:41.131Z,100919.59
2022-10-10T15:57:07.982Z,100914.31
2022-10-10T15:59:36.849Z,100911.78
2022-10-10T16:02:06.138Z,100910.19
2022-10-10T16:04:32.780Z,100897.00
2022-10-10T16:07:23.344Z,100893.63
2022-10-10T16:09:46.105Z,100906.91
2022-10-10T16:12:12.852Z,100896.34
2022-10-10T16:14:39.497Z,100888.44
2022-10-10T16:17:06.209Z,100898.22
2022-10-10T16:19:32.912Z,100889.44
2022-10-10T16:21:59.603Z,100886.81
2022-10-10T16:24:26.284Z,100885.16
2022-10-10T16:26:52.886Z,100872.88
2022-10-10T16:29:20.697Z,100873.84
2022-10-10T16:31:47.424Z,100864.19
2022-10-10T16:34:16.010Z,100866.09
2022-10-10T16:36:43.005Z,100859.94
2022-10-10T16:39:10.266Z,100862.75
2022-10-10T16:41:52.451Z,100863.69
2022-10-10T16:44:19.184Z,100853.25
2022-10-10T16:46:45.918Z,100846.25
2022-10-10T16:49:14.280Z,100850.75
2022-10-10T16:51:40.947Z,100847.22
2022-10-10T16:54:07.591Z,100850.88
2022-10-10T16:56:34.964Z,100852.75
2022-10-10T16:59:01.814Z,100852.81
2022-10-10T17:01:29.159Z,100857.34
2022-10-10T17:03:58.689Z,100859.19
2022-10-10T17:06:25.660Z,100862.78
2022-10-10T17:08:55.149Z,100854.06
2022-10-10T17:11:23.032Z,100864.69
2022-10-10T17:13:50.681Z,100870.91
2022-10-10T17:19:10.382Z,100863.13
2022-10-10T17:21:37.459Z,100868.56
2022-10-10T17:24:04.206Z,100857.09
2022-10-10T17:26:31.131Z,100861.56
2022-10-10T17:28:59.454Z,100860.69
2022-10-10T17:31:26.733Z,100845.72
2022-10-10T17:33:54.761Z,100853.69
2022-10-10T17:36:27.151Z,100839.63
2022-10-10T17:38:56.136Z,100841.41
2022-10-10T17:41:23.404Z,100848.47
2022-10-10T17:43:50.059Z,100858.28
2022-10-10T17:46:34.385Z,100855.69
2022-10-10T17:49:03.821Z,100855.69
2022-10-10T17:51:30.468Z,100858.28
2022-10-10T17:53:59.949Z,100851.22
2022-10-10T17:56:26.923Z,100855.69
2022-10-10T17:58:53.561Z,100863.59
2022-10-10T18:01:20.985Z,100850.25
2022-10-10T18:03:48.510Z,100835.16
2022-10-10T18:06:18.325Z,100826.13
2022-10-10T18:08:47.772Z,100834.97
2022-10-10T18:11:17.193Z,100841.13
2022-10-10T18:13:44.221Z,100833.09
2022-10-10T18:16:14.139Z,100831.16
2022-10-10T18:18:45.657Z,100824.88
2022-10-10T18:21:15.917Z,100831.94
2022-10-10T18:23:43.051Z,100816.03
2022-10-10T18:26:16.706Z,100825.81
2022-10-10T18:28:43.889Z,100813.38
2022-10-10T18:31:17.991Z,100809.72
2022-10-10T18:33:47.666Z,100805.41
2022-10-10T18:36:18.145Z,100816.97
2022-10-10T18:38:45.366Z,100802.75
2022-10-10T18:41:13.421Z,100801.00
2022-10-10T18:43:41.827Z,100787.66
2022-10-10T18:46:10.584Z,100791.16
2022-10-10T18:48:38.672Z,100791.16
2022-10-10T18:51:12.201Z,100780.53
2022-10-10T18:53:40.769Z,100769.91
2022-10-10T18:56:08.537Z,100778.81
2022-10-10T18:58:37.252Z,100779.66
2022-10-10T19:01:09.557Z,100774.31
2022-10-10T19:03:41.291Z,100756.69
2022-10-10T19:06:11.686Z,100766.38
2022-10-10T19:08:39.393Z,100755.81
2022-10-10T19:11:07.721Z,100755.94
2022-10-10T19:13:35.198Z,100754.22
2022-10-10T19:16:07.386Z,100757.78
2022-10-10T19:18:34.720Z,100754.31
2022-10-10T19:21:03.762Z,100756.97
2022-10-10T19:23:31.291Z,100752.56
2022-10-10T19:26:02.006Z,100744.69
2022-10-10T19:28:28.687Z,100745.50
2022-10-10T19:31:02.730Z,100743.69
2022-10-10T19:33:29.605Z,100723.25
2022-10-10T19:36:07.590Z,100724.06
2022-10-10T19:38:38.446Z,100725.00
2022-10-10T19:41:07.065Z,100718.78
2022-10-10T19:43:33.927Z,100709.09
2022-10-10T19:46:06.181Z,100712.69
2022-10-10T19:48:33.551Z,100698.56
2022-10-10T19:51:07.416Z,100708.31
2022-10-10T19:53:36.036Z,100695.03
2022-10-10T19:56:07.877Z,100689.66
2022-10-10T19:58:36.040Z,100687.00
2022-10-10T20:01:19.570Z,100689.66
2022-10-10T20:03:48.094Z,100685.25
2022-10-10T20:06:16.655Z,100684.41
2022-10-10T20:08:43.417Z,100685.25
2022-10-10T20:11:10.495Z,100677.25
2022-10-10T20:13:37.493Z,100669.28
2022-10-10T20:16:07.052Z,100669.28
2022-10-10T20:18:38.144Z,100667.50
2022-10-10T20:21:16.190Z,100656.09
2022-10-10T20:23:44.649Z,100655.16
2022-10-10T20:26:17.339Z,100654.31
2022-10-10T20:28:44.612Z,100648.06
2022-10-10T20:31:20.581Z,100649.03
2022-10-10T20:33:51.347Z,100645.53
2022-10-10T20:36:18.993Z,100639.34
2022-10-10T20:38:51.567Z,100639.34
2022-10-10T20:41:18.305Z,100640.22
2022-10-10T20:43:44.951Z,100631.31
2022-10-10T20:46:13.338Z,100631.25
2022-10-10T20:48:40.588Z,100625.88
2022-10-10T20:51:10.088Z,100613.41
2022-10-10T20:53:44.290Z,100610.69
2022-10-10T20:56:15.539Z,100600.06
2022-10-10T20:58:42.175Z,100606.16
2022-10-10T21:01:15.155Z,100599.13
2022-10-10T21:03:43.568Z,100596.31
2022-10-10T21:06:24.837Z,100589.25
2022-10-10T21:08:55.530Z,100585.56
2022-10-10T21:11:25.658Z,100578.44
2022-10-10T21:13:59.208Z,100563.44
2022-10-10T21:16:35.260Z,100576.66
2022-10-10T21:19:05.080Z,100565.16
2022-10-10T21:21:34.689Z,100554.66
2022-10-10T21:24:06.602Z,100553.66
2022-10-10T21:26:36.549Z,100543.88
2022-10-10T21:29:05.887Z,100544.75
2022-10-10T21:31:37.511Z,100541.22
2022-10-10T21:34:06.647Z,100542.00
2022-10-10T21:36:36.578Z,100541.09
2022-10-10T21:39:06.359Z,100539.28
2022-10-10T21:41:35.984Z,100525.03
2022-10-10T21:44:02.743Z,100521.44
2022-10-10T21:46:35.899Z,100524.91
2022-10-10T21:49:06.613Z,100521.31
2022-10-10T21:51:39.358Z,100525.63
2022-10-10T21:54:08.667Z,100528.22
2022-10-10T21:56:35.918Z,100540.59
2022-10-10T21:59:03.066Z,100535.28
2022-10-10T22:01:33.199Z,100536.97
2022-10-10T22:04:01.318Z,100529.94
2022-10-10T22:06:28.116Z,100540.59
2022-10-10T22:08:59.230Z,100526.34
2022-10-10T22:11:28.461Z,100526.34
2022-10-10T22:13:55.515Z,100521.88
2022-10-10T22:16:25.067Z,100517.44
2022-10-10T22:18:56.592Z,100519.19
2022-10-10T22:21:31.825Z,100496.25
2022-10-10T22:24:02.026Z,100498.91
2022-10-10T22:26:29.314Z,100499.75
2022-10-10T22:28:56.044Z,100482.94
2022-10-10T22:31:26.282Z,100480.19
2022-10-10T22:33:53.013Z,100466.00
2022-10-10T22:36:19.681Z,100471.44
2022-10-10T22:38:46.295Z,100451.91
2022-10-10T22:41:13.729Z,100427.25
2022-10-10T22:43:40.507Z,100437.19
2022-10-10T22:46:08.052Z,100458.53
2022-10-10T22:48:37.468Z,100448.91
2022-10-10T22:51:16.459Z,100445.44
2022-10-10T22:53:48.088Z,100446.47
2022-10-10T22:56:17.389Z,100442.00
2022-10-10T22:58:44.083Z,100442.00
2022-10-10T23:01:19.098Z,100443.88
2022-10-10T23:03:46.252Z,100427.13
2022-10-10T23:06:13.343Z,100419.31
2022-10-10T23:08:40.240Z,100416.78
2022-10-10T23:11:07.163Z,100406.19
2022-10-10T23:13:33.777Z,100406.19
2022-10-10T23:16:00.489Z,100396.56
2022-10-10T23:18:32.312Z,100390.47
2022-10-10T23:21:01.050Z,100401.16
2022-10-10T23:23:27.771Z,100395.13
2022-10-10T23:25:54.382Z,100388.91
2022-10-10T23:28:21.197Z,100388.91
2022-10-10T23:30:48.837Z,100389.81
2022-10-10T23:33:16.827Z,100381.06
2022-10-10T23:35:43.685Z,100366.13
2022-10-10T23:38:10.409Z,100373.25
2022-10-10T23:40:37.004Z,100367.13
2022-10-10T23:43:07.465Z,100360.25
2022-10-10T23:45:34.139Z,100348.91
2022-10-10T23:48:02.761Z,100353.38
2022-10-10T23:50:29.379Z,100348.19
2022-10-10T23:52:58.396Z,100343.03
2022-10-10T23:55:25.741Z,100342.16
2022-10-10T23:57:52.443Z,100339.72
